createdAt,value
2023-02-14T00:03:51.714Z,5.625
2023-02-14T00:08:52.813Z,5.625
2023-02-14T00:13:53.760Z,5.625
2023-02-14T00:18:54.869Z,5.5625
2023-02-14T00:23:55.912Z,5.625
2023-02-14T00:28:56.730Z,5.5625
2023-02-14T00:33:57.851Z,5.5625
2023-02-14T00:38:58.882Z,5.5625
2023-02-14T00:43:59.899Z,5.5625
2023-02-14T00:49:00.870Z,5.5625
2023-02-14T00:54:02.070Z,5.5
2023-02-14T00:59:03.069Z,5.5
2023-02-14T01:04:04.038Z,5.5
2023-02-14T01:09:05.480Z,5.5
2023-02-14T01:14:06.711Z,5.5
2023-02-14T01:19:07.694Z,5.5
2023-02-14T01:24:09.033Z,5.5
2023-02-14T01:29:10.033Z,5.5
2023-02-14T01:34:11.921Z,5.5
2023-02-14T01:39:12.709Z,5.5
2023-02-14T01:44:13.665Z,5.5
2023-02-14T01:49:14.608Z,5.4375
2023-02-14T01:54:15.696Z,5.4375
2023-02-14T01:59:16.719Z,5.4375
2023-02-14T02:04:17.898Z,5.4375
2023-02-14T02:09:19.071Z,5.4375
2023-02-14T02:14:20.416Z,5.5
2023-02-14T02:19:21.490Z,5.4375
2023-02-14T02:24:22.981Z,5.4375
2023-02-14T02:29:23.886Z,5.4375
2023-02-14T02:34:25.330Z,5.4375
2023-02-14T02:39:26.052Z,5.4375
2023-02-14T02:44:27.139Z,5.4375
2023-02-14T02:49:28.163Z,5.4375
2023-02-14T02:54:29.323Z,5.5
2023-02-14T02:59:30.371Z,5.4375
2023-02-14T03:04:31.304Z,5.4375
2023-02-14T03:09:32.588Z,5.375
2023-02-14T03:14:33.608Z,5.4375
2023-02-14T03:19:35.216Z,5.5
2023-02-14T03:24:36.172Z,5.5
2023-02-14T03:29:37.132Z,5.4375
2023-02-14T03:34:38.131Z,5.4375
2023-02-14T03:39:39.158Z,5.4375
2023-02-14T03:44:40.214Z,5.4375
2023-02-14T03:49:41.239Z,5.4375
2023-02-14T03:54:42.455Z,5.4375
2023-02-14T03:59:43.493Z,5.4375
2023-02-14T04:04:44.734Z,5.4375
2023-02-14T04:09:45.819Z,5.4375
2023-02-14T04:14:46.873Z,5.4375
2023-02-14T04:19:48.007Z,5.4375
2023-02-14T04:24:49.334Z,5.4375
2023-02-14T04:29:50.792Z,5.375
2023-02-14T04:34:51.867Z,5.4375
2023-02-14T04:39:52.994Z,5.4375
2023-02-14T04:44:53.909Z,5.375
2023-02-14T04:49:55.069Z,5.4375
2023-02-14T04:54:56.309Z,5.4375
2023-02-14T04:59:57.501Z,5.4375
2023-02-14T05:05:03.674Z,5.4375
2023-02-14T05:09:59.531Z,5.5
2023-02-14T05:15:00.722Z,5.4375
2023-02-14T05:20:01.407Z,5.4375
2023-02-14T05:25:02.521Z,5.4375
2023-02-14T05:30:03.617Z,5.4375
2023-02-14T05:35:05.191Z,5.4375
2023-02-14T05:40:05.659Z,5.4375
2023-02-14T05:45:06.704Z,5.375
2023-02-14T05:50:08.010Z,5.375
2023-02-14T05:55:08.988Z,5.3125
2023-02-14T06:00:10.220Z,5.375
2023-02-14T06:05:11.697Z,5.375
2023-02-14T06:10:12.756Z,5.375
2023-02-14T06:15:13.814Z,5.375
2023-02-14T06:20:14.780Z,5.375
2023-02-14T06:25:18.591Z,5.4375
2023-02-14T06:30:19.792Z,5.4375
2023-02-14T06:35:21.191Z,5.4375
2023-02-14T06:40:22.215Z,5.4375
2023-02-14T06:45:23.344Z,5.4375
2023-02-14T06:50:24.620Z,5.5
2023-02-14T06:55:26.016Z,5.5
2023-02-14T07:00:27.014Z,5.5625
2023-02-14T07:05:27.979Z,5.5625
2023-02-14T07:10:29.181Z,5.625
2023-02-14T07:15:30.266Z,5.6875
2023-02-14T07:20:31.684Z,5.75
2023-02-14T07:25:32.645Z,5.8125
2023-02-14T07:30:33.750Z,5.8125
2023-02-14T07:35:34.832Z,5.9375
2023-02-14T07:40:35.982Z,6
2023-02-14T07:45:36.971Z,6.0625
2023-02-14T07:50:38.264Z,6.0625
2023-02-14T07:55:39.437Z,6.125
2023-02-14T08:00:40.657Z,6.25
2023-02-14T08:05:41.909Z,6.25
2023-02-14T08:10:42.909Z,6.25
2023-02-14T08:15:43.960Z,6.3125
2023-02-14T08:20:45.299Z,6.4375
2023-02-14T08:25:46.292Z,6.5625
2023-02-14T08:30:47.300Z,6.6875
2023-02-14T08:35:48.840Z,6.625
2023-02-14T08:40:49.346Z,6.75
2023-02-14T08:45:50.421Z,6.75
2023-02-14T08:50:51.469Z,6.875
2023-02-14T08:55:52.591Z,6.9375
2023-02-14T09:00:53.950Z,7
2023-02-14T09:05:55.133Z,7.0625
2023-02-14T09:10:56.543Z,7.0625
2023-02-14T09:15:57.568Z,7.1875
2023-02-14T09:20:58.871Z,7.1875
2023-02-14T09:25:59.482Z,7
2023-02-14T09:31:00.841Z,7.0625
2023-02-14T09:36:01.905Z,7.375
2023-02-14T09:41:02.916Z,7.4375
2023-02-14T09:46:04.005Z,7.4375
2023-02-14T09:51:05.036Z,7.4375
2023-02-14T09:56:06.153Z,7.5
2023-02-14T10:01:07.239Z,7.5625
2023-02-14T10:06:08.123Z,7.625
2023-02-14T10:11:09.148Z,7.5625
2023-02-14T10:16:10.242Z,7.5625
2023-02-14T10:21:11.244Z,7.1875
2023-02-14T10:26:12.628Z,7.625
2023-02-14T10:31:13.557Z,7.5
2023-02-14T10:36:14.789Z,7.625
2023-02-14T10:41:15.591Z,7.75
2023-02-14T10:46:18.138Z,7.8125
2023-02-14T10:51:17.889Z,7.875
2023-02-14T10:56:18.965Z,7.8125
2023-02-14T11:01:20.218Z,7.8125
2023-02-14T11:06:21.154Z,8
2023-02-14T11:11:22.105Z,8.125
2023-02-14T11:16:23.119Z,8.25
2023-02-14T11:21:24.052Z,8.125
2023-02-14T11:26:25.108Z,8.1875
2023-02-14T11:31:26.301Z,8.25
2023-02-14T11:36:28.028Z,7.875
2023-02-14T11:41:28.891Z,8.0625
2023-02-14T11:46:30.483Z,8.0625
2023-02-14T11:51:30.906Z,8.125
2023-02-14T11:56:31.964Z,8
2023-02-14T12:01:33.138Z,7.9375
2023-02-14T12:06:34.094Z,7.875
2023-02-14T12:11:35.389Z,8.125
2023-02-14T12:16:36.425Z,8.0625
2023-02-14T12:21:37.500Z,7.9375
2023-02-14T12:26:38.624Z,7.9375
2023-02-14T12:31:40.186Z,7.8125
2023-02-14T12:36:40.987Z,7.9375
2023-02-14T12:41:42.119Z,7.875
2023-02-14T12:46:43.140Z,8
2023-02-14T12:51:44.128Z,8
2023-02-14T12:56:45.169Z,8
2023-02-14T13:01:46.160Z,8.0625
2023-02-14T13:06:47.331Z,8.125
2023-02-14T13:11:48.280Z,8.0625
2023-02-14T13:16:49.452Z,8.0625
2023-02-14T13:21:50.685Z,7.875
2023-02-14T13:26:52.042Z,7.8125
2023-02-14T13:31:53.560Z,7.875
2023-02-14T13:36:54.409Z,7.75
2023-02-14T13:41:55.306Z,7.625
2023-02-14T13:46:56.802Z,7.5625
2023-02-14T13:51:57.545Z,7.4375
2023-02-14T13:56:58.609Z,7.625
2023-02-14T14:01:59.714Z,7.375
2023-02-14T14:07:00.719Z,7.25
2023-02-14T14:12:01.659Z,7.375
2023-02-14T14:17:03.076Z,7.25
2023-02-14T14:22:04.248Z,7.3125
2023-02-14T14:27:05.374Z,7.1875
2023-02-14T14:32:06.871Z,7.0625
2023-02-14T14:37:08.166Z,7
2023-02-14T14:42:08.758Z,7.0625
2023-02-14T14:47:09.705Z,7.125
2023-02-14T14:52:10.865Z,7
2023-02-14T14:57:11.946Z,6.9375
2023-02-14T15:02:12.913Z,6.875
2023-02-14T15:07:13.956Z,6.75
2023-02-14T15:12:14.827Z,6.75
2023-02-14T15:17:15.973Z,6.6875
2023-02-14T15:22:17.010Z,6.6875
2023-02-14T15:27:17.977Z,6.5
2023-02-14T15:32:18.855Z,6.5
2023-02-14T15:37:20.035Z,6.4375
2023-02-14T15:42:21.049Z,6.4375
2023-02-14T15:47:22.046Z,6.375
2023-02-14T15:52:23.001Z,6.3125
2023-02-14T15:57:23.936Z,6.25
2023-02-14T16:02:25.325Z,6.1875
2023-02-14T16:07:26.264Z,6.125
2023-02-14T16:12:27.209Z,6.1875
2023-02-14T16:17:28.176Z,6.125
2023-02-14T16:22:29.251Z,6.0625
2023-02-14T16:27:30.153Z,6.0625
2023-02-14T16:32:31.105Z,5.9375
2023-02-14T16:37:32.258Z,5.875
2023-02-14T16:42:33.235Z,5.875
2023-02-14T16:47:34.320Z,5.8125
2023-02-14T16:52:35.382Z,5.75
2023-02-14T16:57:36.526Z,5.8125
2023-02-14T17:02:37.981Z,5.75
2023-02-14T17:07:38.742Z,5.75
2023-02-14T17:12:39.928Z,5.6875
2023-02-14T17:17:41.009Z,5.6875
2023-02-14T17:22:41.929Z,5.6875
2023-02-14T17:27:42.973Z,5.625
2023-02-14T17:32:44.069Z,5.625
2023-02-14T17:37:45.495Z,5.5625
2023-02-14T17:42:46.060Z,5.5625
2023-02-14T17:47:47.035Z,5.5625
2023-02-14T17:52:48.081Z,5.5625
2023-02-14T17:57:49.292Z,5.5625
2023-02-14T18:02:50.147Z,5.5625
2023-02-14T18:07:51.047Z,5.5625
2023-02-14T18:12:52.203Z,5.5
2023-02-14T18:17:53.282Z,5.5
2023-02-14T18:22:54.350Z,5.4375
2023-02-14T18:27:55.374Z,5.4375
2023-02-14T18:32:56.470Z,5.4375
2023-02-14T18:37:57.995Z,5.4375
2023-02-14T18:42:58.566Z,5.4375
2023-02-14T18:47:59.839Z,5.375
2023-02-14T18:53:00.825Z,5.375
2023-02-14T18:58:02.120Z,5.3125
2023-02-14T19:03:03.538Z,5.25
2023-02-14T19:08:04.761Z,5.25
2023-02-14T19:13:06.263Z,5.1875
2023-02-14T19:18:07.656Z,5.1875
2023-02-14T19:23:08.972Z,5.125
2023-02-14T19:28:10.073Z,5.125
2023-02-14T19:33:11.343Z,5.125
2023-02-14T19:38:12.440Z,5.125
2023-02-14T19:43:13.879Z,5.0625
2023-02-14T19:48:14.915Z,5.0625
2023-02-14T19:53:15.843Z,5
2023-02-14T19:58:16.696Z,5
2023-02-14T20:03:17.787Z,5
2023-02-14T20:08:18.877Z,4.9375
2023-02-14T20:13:19.991Z,4.875
2023-02-14T20:18:21.077Z,4.875
2023-02-14T20:23:22.758Z,4.8125
2023-02-14T20:28:23.976Z,4.75
2023-02-14T20:33:24.928Z,4.625
2023-02-14T20:38:26.497Z,4.5625
2023-02-14T20:43:27.064Z,4.5625
2023-02-14T20:48:27.920Z,4.625
2023-02-14T20:53:29.320Z,4.5625
2023-02-14T20:58:30.348Z,4.5625
2023-02-14T21:03:31.410Z,4.5625
2023-02-14T21:08:32.595Z,4.5625
2023-02-14T21:13:33.731Z,4.5
2023-02-14T21:18:34.786Z,4.5
2023-02-14T21:23:36.050Z,4.5
2023-02-14T21:28:37.095Z,4.375
2023-02-14T21:33:38.504Z,4.3125
2023-02-14T21:38:39.494Z,4.3125
2023-02-14T21:43:40.588Z,4.3125
2023-02-14T21:48:41.947Z,4.3125
2023-02-14T21:53:43.293Z,4.3125
2023-02-14T21:58:44.988Z,4.25
2023-02-14T22:03:46.488Z,4.1875
2023-02-14T22:08:47.342Z,3.875
2023-02-14T22:13:48.568Z,3.6875
2023-02-14T22:18:49.779Z,3.5
2023-02-14T22:23:50.778Z,3.375
2023-02-14T22:28:51.532Z,3.1875
2023-02-14T22:33:52.486Z,3.125
2023-02-14T22:38:53.612Z,3
2023-02-14T22:43:54.535Z,2.875
2023-02-14T22:48:55.673Z,2.75
2023-02-14T22:53:57.097Z,2.6875
2023-02-14T22:58:58.478Z,2.6875
2023-02-14T23:03:59.364Z,2.5625
2023-02-14T23:09:00.436Z,2.5625
2023-02-14T23:14:01.719Z,2.5
2023-02-14T23:19:02.945Z,2.5625
2023-02-14T23:24:04.134Z,2.5
2023-02-14T23:29:05.212Z,2.5625
2023-02-14T23:34:06.342Z,2.4375
2023-02-14T23:39:08.286Z,2.3125
2023-02-14T23:44:08.791Z,2.25
2023-02-14T23:49:09.817Z,2.25
2023-02-14T23:54:11.209Z,2.3125
2023-02-14T23:59:12.383Z,2.3125
